sim
Sign-in with your pilot id or email,
or register
Callsign
Passwort

Schedule Details

Flight Number: EWG88 (2)
Departure: Cologne Bonn Airport (EDDK) at 10:40
Arrival: Munich Airport (EDDM) at 11:50
Route: Eurowings Passenger Schedule. Enter filed route here before submitting Pirep.

Weather Information
Getting current METAR information for EDDK 221850Z VRB02KT CAVOK 17/09 Q1007 NOSIG
Getting current METAR information for EDDM 221850Z VRB02KT 9999 FEW050TCU 17/15 Q1010 NOSIG

Schedule Frequency

Route Map